Time;durP1;ratioP1;P1;durP2;ratioP2;P2;SDS_P1;SDS_P2;PMS_P1;PMS_P2;Temp;Humidity;BMP_temperature;BMP_pressure;BME280_temperature;BME280_humidity;BME280_pressure;Samples;Min_cycle;Max_cycle;Signal;HPM_P1;HPM_P2
2021/03/13 00:00:17;;;;;;;2.70;0.70;;;6.00;99.90;;;;;;5034040;28;20033;-65
2021/03/13 00:02:44;;;;;;;2.22;0.88;;;6.10;99.90;;;;;;5016512;28;20041;-65
2021/03/13 00:05:24;;;;;;;2.88;0.63;;;6.10;99.90;;;;;;5017262;28;20115;-65
2021/03/13 00:07:50;;;;;;;1.60;0.43;;;6.20;99.90;;;;;;5034248;28;20029;-65
2021/03/13 00:10:16;;;;;;;5.25;0.88;;;6.20;99.90;;;;;;5034346;28;20382;-64
2021/03/13 00:12:42;;;;;;;0.60;0.40;;;6.30;99.90;;;;;;5000423;28;20037;-65
2021/03/13 00:15:09;;;;;;;1.70;0.45;;;6.30;99.90;;;;;;5017003;28;20037;-64
2021/03/13 00:17:34;;;;;;;1.25;0.70;;;6.30;99.90;;;;;;5034599;28;20029;-64
2021/03/13 00:20:00;;;;;;;1.52;0.60;;;6.30;99.90;;;;;;5034957;28;20060;-64
2021/03/13 00:22:26;;;;;;;3.25;0.57;;;6.30;99.90;;;;;;5034466;28;20044;-64
2021/03/13 00:24:52;;;;;;;2.42;0.95;;;6.40;99.90;;;;;;5034511;28;20038;-64
2021/03/13 00:27:17;;;;;;;1.75;0.43;;;6.40;99.90;;;;;;5034274;28;20026;-64
2021/03/13 00:29:43;;;;;;;1.05;0.52;;;6.40;99.90;;;;;;5034477;28;20108;-64
2021/03/13 00:32:09;;;;;;;1.08;0.60;;;6.40;99.90;;;;;;5016178;28;20056;-64
2021/03/13 00:34:35;;;;;;;0.50;0.40;;;6.40;99.90;;;;;;5034624;28;20030;-63
2021/03/13 00:37:00;;;;;;;4.28;0.68;;;6.50;99.90;;;;;;5034355;28;20378;-63
2021/03/13 00:39:26;;;;;;;0.45;0.30;;;6.50;99.90;;;;;;5034152;28;20040;-63
2021/03/13 00:41:52;;;;;;;0.60;0.30;;;6.50;99.90;;;;;;5034435;28;20425;-63
2021/03/13 00:44:19;;;;;;;2.88;0.55;;;6.50;99.90;;;;;;5033984;28;20025;-64
2021/03/13 00:46:45;;;;;;;7.95;0.88;;;6.50;99.90;;;;;;5033957;28;20116;-64
2021/03/13 00:49:11;;;;;;;0.60;0.30;;;6.50;99.90;;;;;;5033964;28;20036;-64
2021/03/13 00:51:36;;;;;;;0.88;0.30;;;6.50;99.90;;;;;;5033691;28;20034;-64
2021/03/13 00:54:03;;;;;;;2.60;0.40;;;6.50;99.90;;;;;;5033720;28;20552;-64
2021/03/13 00:56:28;;;;;;;3.50;0.40;;;6.60;99.90;;;;;;5033751;28;20025;-64
2021/03/13 00:58:54;;;;;;;0.60;0.38;;;6.60;99.90;;;;;;5033679;28;20390;-64
2021/03/13 01:01:20;;;;;;;1.33;0.47;;;6.60;99.90;;;;;;5033748;28;20037;-64
2021/03/13 01:03:45;;;;;;;0.80;0.35;;;6.60;99.90;;;;;;5033500;28;20034;-63
2021/03/13 01:06:11;;;;;;;2.60;0.40;;;6.50;99.90;;;;;;5033668;28;20470;-64
2021/03/13 01:08:37;;;;;;;1.08;0.40;;;6.60;99.90;;;;;;5033479;28;20033;-64
2021/03/13 01:11:03;;;;;;;1.35;0.30;;;6.60;99.90;;;;;;5015628;28;20113;-63
2021/03/13 01:13:29;;;;;;;4.97;0.40;;;6.50;99.90;;;;;;5032953;28;20037;-63
2021/03/13 01:15:55;;;;;;;0.75;0.40;;;6.50;99.90;;;;;;5033465;28;20503;-64
2021/03/13 01:18:20;;;;;;;3.72;0.63;;;6.50;99.90;;;;;;5033358;28;20034;-64
2021/03/13 01:20:52;;;;;;;4.55;0.50;;;6.50;99.90;;;;;;5033459;28;20071;-64
2021/03/13 01:23:18;;;;;;;0.52;0.38;;;6.60;99.90;;;;;;5033368;28;20033;-63
2021/03/13 01:25:44;;;;;;;1.10;0.40;;;6.60;99.90;;;;;;5015347;28;20040;-64
2021/03/13 01:28:09;;;;;;;0.30;0.25;;;6.60;99.90;;;;;;5033148;28;20033;-63
2021/03/13 01:30:36;;;;;;;0.70;0.30;;;6.70;99.90;;;;;;5032993;28;20038;-63
2021/03/13 01:33:02;;;;;;;0.73;0.40;;;6.70;99.90;;;;;;5032871;28;20042;-64
2021/03/13 01:35:27;;;;;;;0.90;0.40;;;6.60;99.90;;;;;;5032948;28;20025;-64
2021/03/13 01:37:54;;;;;;;1.38;0.47;;;6.60;99.90;;;;;;5033022;28;20120;-64
2021/03/13 01:40:21;;;;;;;1.48;0.32;;;6.60;99.90;;;;;;5032915;28;20029;-64
2021/03/13 01:42:49;;;;;;;4.55;0.93;;;6.60;99.90;;;;;;5033190;28;20033;-64
2021/03/13 01:45:19;;;;;;;7.30;2.10;;;6.70;99.90;;;;;;5032914;28;20022;-64
2021/03/13 01:47:47;;;;;;;2.40;0.57;;;6.60;99.90;;;;;;5015533;28;20029;-64
2021/03/13 01:50:17;;;;;;;9.23;1.58;;;6.60;99.90;;;;;;5015510;28;20628;-64
2021/03/13 01:52:43;;;;;;;9.13;1.73;;;6.60;99.90;;;;;;5032783;28;20042;-64
2021/03/13 01:55:11;;;;;;;6.25;1.50;;;6.60;99.90;;;;;;5015563;28;20040;-62
2021/03/13 01:57:38;;;;;;;10.70;1.52;;;6.60;99.90;;;;;;5032564;28;20026;-62
2021/03/13 02:00:17;;;;;;;8.55;1.05;;;6.60;99.90;;;;;;5032805;28;20040;-62
2021/03/13 02:02:44;;;;;;;4.80;0.90;;;6.60;99.90;;;;;;5032593;28;20025;-62
2021/03/13 02:05:31;;;;;;;3.70;0.70;;;6.60;99.90;;;;;;5014899;28;20037;-62
2021/03/13 02:08:28;;;;;;;4.53;1.08;;;6.60;99.90;;;;;;5015388;28;20055;-62
2021/03/13 02:11:19;;;;;;;1.80;0.68;;;6.60;99.90;;;;;;5032587;28;20067;-63
2021/03/13 02:14:19;;;;;;;5.15;0.73;;;6.50;99.90;;;;;;5014907;28;20033;-63
2021/03/13 02:16:59;;;;;;;4.35;0.85;;;6.50;99.90;;;;;;5014621;28;20030;-63
2021/03/13 02:20:07;;;;;;;2.20;0.52;;;6.50;99.90;;;;;;5015155;28;20033;-64
2021/03/13 02:22:39;;;;;;;2.38;0.60;;;6.40;99.90;;;;;;5032054;28;20155;-64
2021/03/13 02:25:12;;;;;;;5.25;0.70;;;6.40;99.90;;;;;;5014340;28;20065;-63
2021/03/13 02:27:51;;;;;;;3.50;0.88;;;6.50;99.90;;;;;;5015092;28;20045;-64
2021/03/13 02:30:23;;;;;;;1.35;0.55;;;6.50;99.90;;;;;;5015615;28;20026;-64
2021/03/13 02:33:16;;;;;;;1.35;0.63;;;6.50;99.90;;;;;;5011046;28;20056;-64
2021/03/13 02:35:54;;;;;;;3.35;0.63;;;6.50;99.90;;;;;;5011440;28;20499;-63
2021/03/13 02:38:37;;;;;;;2.85;0.82;;;6.50;99.90;;;;;;5012495;28;20038;-63
2021/03/13 02:41:22;;;;;;;1.73;0.80;;;6.60;99.90;;;;;;5011499;28;20037;-63
2021/03/13 02:43:55;;;;;;;2.08;0.80;;;6.60;99.90;;;;;;5011601;28;20026;-63
2021/03/13 02:46:25;;;;;;;3.60;0.82;;;6.60;99.90;;;;;;4995347;28;20026;-64
2021/03/13 02:48:54;;;;;;;1.30;0.63;;;6.60;99.90;;;;;;5011113;28;20495;-63
2021/03/13 02:51:26;;;;;;;5.40;0.50;;;6.60;99.90;;;;;;5011179;28;20042;-63
2021/03/13 02:53:55;;;;;;;1.65;0.50;;;6.60;99.90;;;;;;5011223;28;20041;-63
2021/03/13 02:56:23;;;;;;;3.80;0.63;;;6.70;99.90;;;;;;5010802;28;20030;-64
2021/03/13 02:58:54;;;;;;;1.38;0.90;;;6.80;99.90;;;;;;5010895;28;20044;-64
2021/03/13 03:01:22;;;;;;;2.53;0.50;;;6.90;99.90;;;;;;5012324;28;20121;-64
2021/03/13 03:03:51;;;;;;;4.07;0.70;;;6.90;99.90;;;;;;5011276;28;20300;-64
2021/03/13 03:06:21;;;;;;;5.38;0.90;;;6.90;99.90;;;;;;5011219;28;20032;-63
2021/03/13 03:08:48;;;;;;;2.17;0.60;;;6.90;99.90;;;;;;5012062;28;20038;-64
2021/03/13 03:11:20;;;;;;;2.47;0.40;;;7.00;99.90;;;;;;5012445;28;20076;-64
2021/03/13 03:13:48;;;;;;;2.38;0.63;;;7.00;99.90;;;;;;5010824;28;20042;-64
2021/03/13 03:16:15;;;;;;;2.50;0.50;;;7.00;99.90;;;;;;5011153;28;20036;-64
2021/03/13 03:18:41;;;;;;;5.50;0.70;;;7.00;99.90;;;;;;5010697;28;20044;-64
2021/03/13 03:21:09;;;;;;;4.80;0.90;;;7.00;99.90;;;;;;5011034;28;20058;-65
2021/03/13 03:23:38;;;;;;;3.70;0.47;;;7.00;99.90;;;;;;5010648;28;20042;-64
2021/03/13 03:26:04;;;;;;;0.47;0.30;;;6.90;99.90;;;;;;5010982;28;20109;-64
2021/03/13 03:28:30;;;;;;;3.60;0.40;;;6.90;99.90;;;;;;5011763;28;20113;-64
2021/03/13 03:30:56;;;;;;;1.35;1.17;;;6.90;99.90;;;;;;5012240;28;20057;-63
2021/03/13 03:33:23;;;;;;;0.43;0.30;;;6.90;99.90;;;;;;5027571;28;20471;-64
2021/03/13 03:35:49;;;;;;;2.40;0.40;;;6.90;99.90;;;;;;5033358;28;20058;-64
2021/03/13 03:38:17;;;;;;;3.47;1.13;;;6.80;99.90;;;;;;5035015;28;20112;-64
2021/03/13 03:40:45;;;;;;;0.45;0.38;;;6.90;99.90;;;;;;5035356;28;20037;-64
2021/03/13 03:43:39;;;;;;;1.58;0.35;;;6.90;99.90;;;;;;5035060;28;20128;-64
2021/03/13 03:46:06;;;;;;;2.40;0.30;;;6.80;99.90;;;;;;5018369;28;20037;-64
2021/03/13 03:48:34;;;;;;;0.80;0.30;;;6.80;99.90;;;;;;5000800;28;20065;-64
2021/03/13 03:51:03;;;;;;;0.47;0.20;;;6.80;99.90;;;;;;5017403;28;20038;-64
2021/03/13 03:53:40;;;;;;;1.90;0.30;;;6.90;99.90;;;;;;5034899;28;20033;-64
2021/03/13 03:56:08;;;;;;;0.45;0.40;;;6.90;99.90;;;;;;5017731;28;20597;-65
2021/03/13 03:58:43;;;;;;;0.47;0.30;;;6.90;99.90;;;;;;5017110;28;20072;-64
2021/03/13 04:01:10;;;;;;;1.45;0.40;;;6.90;99.90;;;;;;5017468;28;20429;-64
2021/03/13 04:03:47;;;;;;;0.57;0.28;;;6.90;99.90;;;;;;5017041;28;20103;-64
2021/03/13 04:06:13;;;;;;;0.20;0.20;;;6.90;99.90;;;;;;5017514;28;20398;-64
2021/03/13 04:08:44;;;;;;;0.82;0.25;;;6.80;99.90;;;;;;5034649;28;20032;-64
2021/03/13 04:11:19;;;;;;;0.85;0.43;;;6.80;99.90;;;;;;5017480;28;20030;-64
2021/03/13 04:13:48;;;;;;;2.40;0.30;;;6.80;99.90;;;;;;5017208;28;20069;-64
2021/03/13 04:16:16;;;;;;;2.47;0.32;;;6.80;99.90;;;;;;5034532;28;20068;-64
2021/03/13 04:18:42;;;;;;;0.65;0.38;;;6.70;99.90;;;;;;5016902;28;20040;-64
2021/03/13 04:21:09;;;;;;;1.45;0.28;;;6.70;99.90;;;;;;5017000;28;20038;-64
2021/03/13 04:23:37;;;;;;;1.38;0.50;;;6.70;99.90;;;;;;5016575;28;20124;-64
2021/03/13 04:26:04;;;;;;;2.13;0.35;;;6.70;99.90;;;;;;5034314;28;20036;-64
2021/03/13 04:28:30;;;;;;;2.90;0.40;;;6.70;99.90;;;;;;5034357;28;20041;-64
2021/03/13 04:30:56;;;;;;;1.83;0.50;;;6.70;99.90;;;;;;5016652;28;20021;-64
2021/03/13 04:33:23;;;;;;;1.58;0.47;;;6.70;99.90;;;;;;5016243;28;20057;-64
2021/03/13 04:35:52;;;;;;;3.80;1.02;;;6.70;99.90;;;;;;5016738;28;20113;-64
2021/03/13 04:38:20;;;;;;;2.78;0.57;;;6.70;99.90;;;;;;5016400;28;20025;-64
2021/03/13 04:40:48;;;;;;;1.17;0.60;;;6.80;99.90;;;;;;5016597;28;20053;-63
2021/03/13 04:43:18;;;;;;;3.30;0.65;;;6.80;99.90;;;;;;5016497;28;20034;-63
2021/03/13 04:45:44;;;;;;;4.85;0.95;;;6.90;99.90;;;;;;5033875;28;20087;-63
2021/03/13 04:48:14;;;;;;;5.60;0.75;;;6.90;99.90;;;;;;5015877;28;20036;-63
2021/03/13 04:50:41;;;;;;;4.05;0.93;;;7.00;99.90;;;;;;4999857;28;20151;-63
2021/03/13 04:53:07;;;;;;;5.03;0.85;;;7.10;99.90;;;;;;5033652;28;20531;-63
2021/03/13 04:55:34;;;;;;;3.20;0.98;;;7.00;99.90;;;;;;5016197;28;20030;-64
2021/03/13 04:58:00;;;;;;;5.30;1.15;;;7.10;99.90;;;;;;5033935;28;20049;-64
2021/03/13 05:00:26;;;;;;;5.88;0.80;;;7.20;99.90;;;;;;5016337;28;20064;-64
2021/03/13 05:02:51;;;;;;;4.03;0.90;;;7.20;99.90;;;;;;5016304;28;20044;-63
2021/03/13 05:05:17;;;;;;;4.13;0.80;;;7.30;99.90;;;;;;5033599;28;20501;-63
2021/03/13 05:07:43;;;;;;;8.52;1.27;;;7.30;99.90;;;;;;5015885;28;20489;-63
2021/03/13 05:10:10;;;;;;;3.45;0.80;;;7.40;99.90;;;;;;5033730;28;20489;-63
2021/03/13 05:12:36;;;;;;;4.25;0.60;;;7.40;99.90;;;;;;5033275;28;20105;-63
2021/03/13 05:15:06;;;;;;;5.50;0.60;;;7.40;99.90;;;;;;5015995;28;20542;-63
2021/03/13 05:17:32;;;;;;;3.38;0.80;;;7.50;99.90;;;;;;5015983;28;20053;-63
2021/03/13 05:19:58;;;;;;;5.82;0.85;;;7.60;99.90;;;;;;5033577;28;20047;-63
2021/03/13 05:22:25;;;;;;;4.25;0.63;;;7.50;99.90;;;;;;5033587;28;20029;-63
2021/03/13 05:24:51;;;;;;;2.38;0.85;;;7.50;99.90;;;;;;5033045;28;20502;-63
2021/03/13 05:27:17;;;;;;;5.93;0.90;;;7.50;99.90;;;;;;5033481;28;20033;-63
2021/03/13 05:29:43;;;;;;;3.85;0.95;;;7.50;99.90;;;;;;5033229;28;20106;-63
2021/03/13 05:32:09;;;;;;;3.45;0.95;;;7.50;99.90;;;;;;5033022;28;20038;-63
2021/03/13 05:34:35;;;;;;;3.30;0.75;;;7.60;99.90;;;;;;5032955;28;20030;-63
2021/03/13 05:37:01;;;;;;;6.82;1.20;;;7.60;99.90;;;;;;4999049;28;20119;-62
2021/03/13 05:39:26;;;;;;;4.07;1.10;;;7.60;99.90;;;;;;5032856;28;20397;-62
2021/03/13 05:41:53;;;;;;;3.60;0.80;;;7.50;99.90;;;;;;5033095;28;20385;-62
2021/03/13 05:44:20;;;;;;;3.15;0.95;;;7.60;99.90;;;;;;5015516;28;20038;-62
2021/03/13 05:46:46;;;;;;;1.10;0.43;;;7.60;99.90;;;;;;5033022;28;20030;-63
2021/03/13 05:49:13;;;;;;;6.10;1.55;;;7.60;99.90;;;;;;5032648;28;20037;-62
2021/03/13 05:51:48;;;;;;;7.10;1.88;;;7.60;99.90;;;;;;5032952;28;20107;-62
2021/03/13 05:54:18;;;;;;;6.00;1.45;;;7.70;99.90;;;;;;5015367;28;20047;-62
2021/03/13 05:56:45;;;;;;;3.38;0.70;;;7.70;99.90;;;;;;5032519;28;20167;-62
2021/03/13 05:59:12;;;;;;;4.38;1.13;;;7.80;99.90;;;;;;5013946;28;20037;-63
2021/03/13 06:01:39;;;;;;;4.68;0.90;;;7.80;99.90;;;;;;5013163;28;20056;-62
2021/03/13 06:04:04;;;;;;;3.28;0.50;;;7.70;99.90;;;;;;4979683;28;20574;-62
2021/03/13 06:06:37;;;;;;;6.10;1.67;;;7.80;99.90;;;;;;5010312;28;20132;-70
2021/03/13 06:09:05;;;;;;;2.72;0.90;;;7.90;99.90;;;;;;4999457;28;20499;-61
2021/03/13 06:11:31;;;;;;;4.68;0.52;;;7.90;99.90;;;;;;5012606;28;20077;-62
2021/03/13 06:13:57;;;;;;;2.47;0.40;;;7.90;99.90;;;;;;5012509;28;20040;-63
2021/03/13 06:16:23;;;;;;;3.33;0.88;;;8.00;99.90;;;;;;5012847;28;20034;-61
2021/03/13 06:18:48;;;;;;;4.60;1.00;;;7.90;99.90;;;;;;5012208;28;20076;-63
2021/03/13 06:21:31;;;;;;;4.15;0.80;;;8.00;99.90;;;;;;5012834;28;20057;-63
2021/03/13 06:24:07;;;;;;;3.22;0.93;;;8.00;99.90;;;;;;5011844;28;20026;-63
2021/03/13 06:26:59;;;;;;;0.80;0.40;;;8.10;99.90;;;;;;5011880;28;20429;-62
2021/03/13 06:29:26;;;;;;;3.95;1.75;;;8.20;99.90;;;;;;5012611;28;20053;-62
2021/03/13 06:32:11;;;;;;;2.67;1.23;;;8.20;99.90;;;;;;5012271;28;20390;-63
2021/03/13 06:34:38;;;;;;;6.05;1.83;;;8.20;99.90;;;;;;5006036;28;20037;-63
2021/03/13 06:37:28;;;;;;;2.30;0.80;;;8.30;99.90;;;;;;5011470;28;20041;-62
2021/03/13 06:39:56;;;;;;;1.05;0.50;;;8.30;99.90;;;;;;5011456;28;20058;-62
2021/03/13 06:42:24;;;;;;;7.35;0.90;;;8.30;99.90;;;;;;5011214;28;20030;-62
2021/03/13 06:45:09;;;;;;;2.88;0.60;;;8.30;99.90;;;;;;5012464;28;20502;-62
2021/03/13 06:47:41;;;;;;;2.17;0.80;;;8.40;99.90;;;;;;5012555;28;20482;-61
2021/03/13 06:50:26;;;;;;;5.90;1.48;;;8.30;99.90;;;;;;5012324;28;20088;-63
2021/03/13 06:53:07;;;;;;;4.20;1.08;;;8.30;99.90;;;;;;5011222;28;20033;-62
2021/03/13 06:55:33;;;;;;;3.03;0.70;;;8.30;99.90;;;;;;5011328;28;20116;-63
2021/03/13 06:58:10;;;;;;;2.60;0.90;;;8.30;99.90;;;;;;5012266;28;20034;-63
2021/03/13 07:00:38;;;;;;;1.88;0.43;;;8.40;99.90;;;;;;5011706;28;20065;-62
2021/03/13 07:03:15;;;;;;;3.22;0.73;;;8.40;99.90;;;;;;5012082;28;20042;-63
2021/03/13 07:05:45;;;;;;;3.55;0.60;;;8.50;99.90;;;;;;5011060;28;20088;-63
2021/03/13 07:08:31;;;;;;;1.70;0.63;;;8.50;99.90;;;;;;5010666;28;20048;-64
2021/03/13 07:11:03;;;;;;;4.25;0.70;;;8.60;99.90;;;;;;5011840;28;20038;-61
2021/03/13 07:13:39;;;;;;;0.63;0.30;;;8.60;99.90;;;;;;5015904;28;20042;-64
2021/03/13 07:16:31;;;;;;;3.03;0.40;;;8.70;99.90;;;;;;5016084;28;20113;-61
2021/03/13 07:19:11;;;;;;;4.05;0.77;;;8.80;99.90;;;;;;5015051;28;20050;-62
2021/03/13 07:21:42;;;;;;;2.70;1.23;;;8.70;99.90;;;;;;5015244;28;20129;-61
2021/03/13 07:24:13;;;;;;;1.92;0.60;;;8.80;99.90;;;;;;5015555;28;20021;-62
2021/03/13 07:26:42;;;;;;;1.60;0.45;;;8.80;99.90;;;;;;5015739;28;20034;-62
2021/03/13 07:29:11;;;;;;;0.90;0.32;;;8.90;99.90;;;;;;5015722;28;20156;-62
2021/03/13 07:31:40;;;;;;;2.38;0.80;;;9.00;99.90;;;;;;5015583;28;20041;-62
2021/03/13 07:34:17;;;;;;;1.75;0.60;;;8.90;99.90;;;;;;5015651;28;20375;-62
2021/03/13 07:36:45;;;;;;;3.45;0.57;;;9.00;99.90;;;;;;4997820;28;20033;-63
2021/03/13 07:39:21;;;;;;;2.40;0.98;;;9.00;99.90;;;;;;5013599;28;20099;-62
2021/03/13 07:42:16;;;;;;;1.38;0.70;;;9.10;99.90;;;;;;5015536;28;20096;-63
2021/03/13 07:44:43;;;;;;;2.33;0.88;;;9.20;99.90;;;;;;5015626;28;20081;-63
2021/03/13 07:47:17;;;;;;;3.53;1.42;;;9.20;99.90;;;;;;5015591;28;20141;-62
2021/03/13 07:49:43;;;;;;;3.05;0.60;;;9.40;99.90;;;;;;5015311;28;20026;-63
2021/03/13 07:52:12;;;;;;;2.97;0.60;;;9.40;99.90;;;;;;5015465;28;20033;-63
2021/03/13 07:54:42;;;;;;;2.90;0.68;;;9.40;99.90;;;;;;4997800;28;20074;-63
2021/03/13 07:57:10;;;;;;;1.77;0.50;;;9.50;99.90;;;;;;4997853;28;20033;-63
2021/03/13 07:59:52;;;;;;;2.95;0.80;;;9.60;99.90;;;;;;5015240;28;20123;-63
2021/03/13 08:02:29;;;;;;;3.40;0.50;;;9.60;99.90;;;;;;5015214;28;20046;-63
2021/03/13 08:05:00;;;;;;;3.67;0.80;;;9.60;99.90;;;;;;5014929;28;20042;-63
2021/03/13 08:07:53;;;;;;;4.25;0.73;;;9.50;99.90;;;;;;5015114;28;20064;-62
2021/03/13 08:10:44;;;;;;;3.80;1.15;;;9.60;99.90;;;;;;5015166;28;20034;-62
2021/03/13 08:13:35;;;;;;;7.55;1.08;;;9.60;99.90;;;;;;5014999;28;20038;-63
2021/03/13 08:16:12;;;;;;;4.90;1.73;;;9.60;99.90;;;;;;5007225;28;20041;-64
2021/03/13 08:18:49;;;;;;;5.07;0.93;;;9.60;99.90;;;;;;4997209;28;20042;-64
2021/03/13 08:21:21;;;;;;;0.55;0.20;;;9.60;99.90;;;;;;4999245;28;20483;-65
2021/03/13 08:23:58;;;;;;;2.50;0.93;;;9.60;99.90;;;;;;5007198;28;20391;-63
2021/03/13 08:26:35;;;;;;;3.80;0.90;;;9.70;99.90;;;;;;5017096;28;20451;-61
2021/03/13 08:29:09;;;;;;;0.75;0.35;;;9.60;99.90;;;;;;5014430;28;20091;-61
2021/03/13 08:31:46;;;;;;;3.42;0.98;;;9.70;99.90;;;;;;5014643;28;20060;-62
2021/03/13 08:34:18;;;;;;;1.60;0.40;;;9.60;99.90;;;;;;5013231;28;20433;-62
2021/03/13 08:36:47;;;;;;;1.23;0.50;;;9.60;99.90;;;;;;5014141;28;20026;-63
2021/03/13 08:39:34;;;;;;;3.90;0.52;;;9.60;99.90;;;;;;5014019;28;20037;-62
2021/03/13 08:42:00;;;;;;;3.95;0.65;;;9.60;99.90;;;;;;5011028;28;20113;-62
2021/03/13 08:44:30;;;;;;;2.38;0.50;;;9.60;99.90;;;;;;5014358;28;20061;-63
2021/03/13 08:46:59;;;;;;;3.97;0.63;;;9.60;99.90;;;;;;5014143;28;20544;-62
2021/03/13 08:49:25;;;;;;;2.92;0.57;;;9.60;99.90;;;;;;5013537;28;20359;-62
2021/03/13 08:52:09;;;;;;;3.40;0.68;;;9.60;99.90;;;;;;5032956;28;20043;-62
2021/03/13 08:54:44;;;;;;;2.05;0.68;;;9.50;99.90;;;;;;4998714;28;20537;-62
2021/03/13 08:57:48;;;;;;;4.55;0.75;;;9.60;99.90;;;;;;5014111;28;20046;-62
2021/03/13 09:00:17;;;;;;;3.33;0.52;;;9.60;99.90;;;;;;5013855;28;20033;-63
2021/03/13 09:02:47;;;;;;;3.15;0.85;;;9.70;99.90;;;;;;4996203;28;20386;-62
2021/03/13 09:05:20;;;;;;;2.63;0.65;;;9.80;99.90;;;;;;5013975;28;20070;-63
2021/03/13 09:07:57;;;;;;;1.27;0.52;;;9.80;99.90;;;;;;5013766;28;20109;-63
2021/03/13 09:10:24;;;;;;;0.50;0.30;;;9.80;99.90;;;;;;5001407;28;20038;-63
2021/03/13 09:12:50;;;;;;;0.95;0.68;;;9.90;99.90;;;;;;5013686;28;20058;-63
2021/03/13 09:15:16;;;;;;;2.90;0.80;;;9.90;99.90;;;;;;5013666;28;20487;-63
2021/03/13 09:17:43;;;;;;;1.95;0.30;;;9.90;99.90;;;;;;5013455;28;20032;-62
2021/03/13 09:20:16;;;;;;;4.28;0.90;;;9.90;99.90;;;;;;5018641;28;20086;-63
2021/03/13 09:22:46;;;;;;;1.25;0.50;;;9.90;99.90;;;;;;5033504;28;20485;-63
2021/03/13 09:25:22;;;;;;;3.83;0.88;;;9.90;99.90;;;;;;5033449;28;20064;-63
2021/03/13 09:27:51;;;;;;;2.47;0.80;;;9.80;99.90;;;;;;4999000;28;20087;-63
2021/03/13 09:30:21;;;;;;;3.38;1.02;;;9.90;99.90;;;;;;5033204;28;20033;-63
2021/03/13 09:32:50;;;;;;;1.67;0.50;;;9.90;99.90;;;;;;5014568;28;20045;-63
2021/03/13 09:35:18;;;;;;;3.13;0.52;;;9.90;99.90;;;;;;5015420;28;20549;-63
2021/03/13 09:37:44;;;;;;;1.55;0.50;;;9.80;99.90;;;;;;5033058;28;20125;-62
2021/03/13 09:40:14;;;;;;;3.45;0.63;;;9.90;99.90;;;;;;5015349;28;20116;-63
2021/03/13 09:42:43;;;;;;;1.67;0.57;;;9.80;99.90;;;;;;5032766;28;20030;-64
2021/03/13 09:45:12;;;;;;;2.60;0.45;;;9.90;99.90;;;;;;5032573;28;20030;-63
2021/03/13 09:48:10;;;;;;;0.65;0.30;;;9.90;99.90;;;;;;5032726;28;20033;-63
2021/03/13 09:50:40;;;;;;;2.75;0.90;;;9.90;99.90;;;;;;5013344;28;20107;-76
2021/03/13 09:53:07;;;;;;;2.28;0.60;;;9.80;99.90;;;;;;5004133;28;20037;-63
2021/03/13 09:55:33;;;;;;;1.02;0.60;;;9.60;99.90;;;;;;5012944;28;20026;-63
2021/03/13 09:58:02;;;;;;;5.88;0.60;;;9.60;99.90;;;;;;5012720;28;20061;-62
2021/03/13 10:00:43;;;;;;;5.65;0.70;;;9.50;99.90;;;;;;5011659;28;20120;-61
2021/03/13 10:03:17;;;;;;;1.42;0.75;;;9.30;99.90;;;;;;5012668;28;20042;-64
2021/03/13 10:05:43;;;;;;;3.42;0.90;;;9.20;99.90;;;;;;5011604;28;20064;-63
2021/03/13 10:08:14;;;;;;;3.25;0.80;;;9.10;99.90;;;;;;5011168;28;20506;-63
2021/03/13 10:10:48;;;;;;;;;;;9.00;99.90;;;;;;5012625;28;20495;-61
2021/03/13 10:13:17;;;;;;;2.30;0.73;;;9.00;99.90;;;;;;5011761;28;19917;-62
2021/03/13 10:15:44;;;;;;;1.88;0.43;;;9.00;99.90;;;;;;4995269;28;20030;-57
2021/03/13 10:18:19;;;;;;;1.35;0.50;;;9.00;99.90;;;;;;5012375;28;20198;-62
2021/03/13 10:20:45;;;;;;;3.78;0.85;;;9.00;99.90;;;;;;5012528;28;20123;-69
2021/03/13 10:23:37;;;;;;;2.55;0.85;;;9.00;99.90;;;;;;5011043;28;20109;-62
2021/03/13 10:26:14;;;;;;;5.15;1.40;;;9.10;99.90;;;;;;5012322;28;20030;-63
2021/03/13 10:28:49;;;;;;;2.08;0.57;;;9.10;99.90;;;;;;5012311;28;20030;-63
2021/03/13 10:31:20;;;;;;;1.25;0.60;;;9.10;99.90;;;;;;5014753;28;20034;-63
2021/03/13 10:33:48;;;;;;;3.05;0.68;;;9.20;99.90;;;;;;5012089;28;20406;-63
2021/03/13 10:36:17;;;;;;;1.45;0.65;;;9.30;99.90;;;;;;5011917;28;20030;-63
2021/03/13 10:38:56;;;;;;;2.63;0.40;;;9.40;99.90;;;;;;5012110;28;20041;-61
2021/03/13 10:41:25;;;;;;;6.82;1.23;;;9.50;99.90;;;;;;5012510;28;20030;-63
2021/03/13 10:43:52;;;;;;;2.30;1.00;;;9.60;99.90;;;;;;4995019;28;20037;-63
2021/03/13 10:46:21;;;;;;;3.05;1.00;;;9.50;99.90;;;;;;5015367;28;20084;-63
2021/03/13 10:48:47;;;;;;;3.65;0.70;;;9.60;99.90;;;;;;5016055;28;20383;-62
2021/03/13 10:51:25;;;;;;;2.03;0.50;;;9.60;99.90;;;;;;5015974;28;20038;-62
2021/03/13 10:53:52;;;;;;;2.03;0.63;;;9.50;99.90;;;;;;5016467;28;20037;-62
2021/03/13 10:56:18;;;;;;;2.92;0.70;;;9.50;99.90;;;;;;5016499;28;20049;-62
2021/03/13 10:58:57;;;;;;;0.90;0.50;;;9.70;99.90;;;;;;5016530;28;20030;-62
2021/03/13 11:01:24;;;;;;;1.83;0.68;;;9.70;99.90;;;;;;5016286;28;20045;-62
2021/03/13 11:03:53;;;;;;;1.95;0.65;;;9.60;99.90;;;;;;5001392;28;20026;-62
2021/03/13 11:06:33;;;;;;;3.85;0.65;;;9.70;99.90;;;;;;5015615;28;20525;-62
2021/03/13 11:09:02;;;;;;;0.85;0.40;;;9.80;99.90;;;;;;5015937;28;20180;-62
2021/03/13 11:11:28;;;;;;;2.38;0.40;;;9.90;99.90;;;;;;5000147;28;20041;-62
2021/03/13 11:13:55;;;;;;;4.68;0.73;;;9.80;99.90;;;;;;5014905;28;20037;-62
2021/03/13 11:16:22;;;;;;;2.47;0.60;;;9.60;99.90;;;;;;5004683;28;20041;-62
2021/03/13 11:18:56;;;;;;;2.97;0.60;;;9.70;99.90;;;;;;4999071;28;20025;-62
2021/03/13 11:21:27;;;;;;;1.15;0.45;;;9.50;99.90;;;;;;5013122;28;20482;-62
2021/03/13 11:23:54;;;;;;;5.72;1.00;;;9.50;99.90;;;;;;5035489;28;20033;-64
2021/03/13 11:26:21;;;;;;;3.38;0.63;;;9.40;99.90;;;;;;5035615;28;20034;-63
2021/03/13 11:28:47;;;;;;;1.92;0.40;;;8.80;99.90;;;;;;5035046;28;20061;-63
2021/03/13 11:31:14;;;;;;;1.02;0.50;;;7.10;99.90;;;;;;5017713;28;20036;-63
2021/03/13 11:33:40;;;;;;;1.10;0.43;;;6.50;99.90;;;;;;5034826;28;20056;-63
2021/03/13 11:36:07;;;;;;;1.67;0.47;;;6.10;99.90;;;;;;5034805;28;20103;-63
2021/03/13 11:38:35;;;;;;;1.65;0.70;;;6.00;99.90;;;;;;5035097;28;20056;-62
2021/03/13 11:41:04;;;;;;;0.20;0.17;;;6.10;99.90;;;;;;5035250;28;20470;-62
2021/03/13 11:43:31;;;;;;;0.75;0.40;;;6.00;99.90;;;;;;5017937;28;20120;-63
2021/03/13 11:45:57;;;;;;;1.42;0.70;;;6.00;99.90;;;;;;5035187;28;20034;-63
2021/03/13 11:48:23;;;;;;;2.80;0.20;;;6.00;99.90;;;;;;5035304;28;20032;-63
2021/03/13 11:50:50;;;;;;;0.85;0.47;;;6.00;99.90;;;;;;5024361;28;20040;-64
2021/03/13 11:53:18;;;;;;;1.25;0.43;;;6.00;99.90;;;;;;5014909;28;20084;-63
2021/03/13 11:55:44;;;;;;;0.68;0.40;;;6.00;99.90;;;;;;5015002;28;20057;-62
2021/03/13 11:58:11;;;;;;;1.17;0.63;;;6.00;99.90;;;;;;5015196;28;20463;-62
2021/03/13 12:00:37;;;;;;;1.33;0.50;;;5.90;99.90;;;;;;5015133;28;20597;-62
2021/03/13 12:03:04;;;;;;;1.15;0.47;;;5.90;99.90;;;;;;5014788;28;20398;-63
2021/03/13 12:05:30;;;;;;;0.20;0.20;;;5.90;99.90;;;;;;5015011;28;20061;-62
2021/03/13 12:07:56;;;;;;;1.10;0.28;;;5.90;99.90;;;;;;5015138;28;20046;-62
2021/03/13 12:10:22;;;;;;;1.63;0.80;;;5.90;99.90;;;;;;4997545;28;20077;-62
2021/03/13 12:12:48;;;;;;;1.55;0.55;;;6.00;99.90;;;;;;5014938;28;20049;-64
2021/03/13 12:15:14;;;;;;;0.20;0.20;;;6.10;99.90;;;;;;5014554;28;20478;-64
2021/03/13 12:17:40;;;;;;;0.45;0.25;;;6.10;99.90;;;;;;5014782;28;20026;-63
2021/03/13 12:20:09;;;;;;;0.82;0.40;;;6.30;99.90;;;;;;5019591;28;20040;-63
2021/03/13 12:22:35;;;;;;;1.17;0.30;;;6.50;99.90;;;;;;5033794;28;20029;-63
2021/03/13 12:25:04;;;;;;;0.43;0.32;;;6.70;99.90;;;;;;5020822;28;20029;-63
2021/03/13 12:27:30;;;;;;;0.20;0.20;;;6.70;99.90;;;;;;5034633;28;20493;-63
2021/03/13 12:29:56;;;;;;;1.88;0.40;;;6.70;99.90;;;;;;5016518;28;20112;-62
2021/03/13 12:32:21;;;;;;;0.77;0.40;;;6.80;99.90;;;;;;5017397;28;20042;-63
2021/03/13 12:34:47;;;;;;;0.45;0.22;;;6.90;99.90;;;;;;5014665;28;20045;-62
2021/03/13 12:37:13;;;;;;;0.40;0.30;;;6.90;99.90;;;;;;5014310;28;20088;-63
2021/03/13 12:39:40;;;;;;;3.05;0.90;;;6.90;99.90;;;;;;5014644;28;20029;-63
2021/03/13 12:42:06;;;;;;;2.40;0.43;;;7.00;99.90;;;;;;5014274;28;20022;-62
2021/03/13 12:44:32;;;;;;;3.03;0.73;;;7.00;99.90;;;;;;5014404;28;20041;-62
2021/03/13 12:46:59;;;;;;;1.98;0.65;;;7.10;99.90;;;;;;5014395;28;20052;-62
2021/03/13 12:49:24;;;;;;;3.22;0.90;;;7.10;99.90;;;;;;5012953;28;20556;-62
2021/03/13 12:51:50;;;;;;;1.85;0.52;;;7.20;99.90;;;;;;5033282;28;20033;-62
2021/03/13 12:54:16;;;;;;;1.95;0.38;;;7.20;99.90;;;;;;5015898;28;20084;-62
2021/03/13 12:56:42;;;;;;;3.22;0.40;;;7.30;99.90;;;;;;5015323;28;20147;-62
2021/03/13 12:59:08;;;;;;;1.23;0.43;;;7.30;99.90;;;;;;4998600;28;20042;-64
2021/03/13 13:01:34;;;;;;;3.25;0.45;;;7.40;99.90;;;;;;5013762;28;20030;-64
2021/03/13 13:04:01;;;;;;;2.05;0.47;;;7.50;99.90;;;;;;5014166;28;20106;-64
2021/03/13 13:06:29;;;;;;;1.80;0.63;;;7.60;99.90;;;;;;5013246;28;20060;-62
2021/03/13 13:08:56;;;;;;;2.05;0.65;;;7.60;99.90;;;;;;5013472;28;20038;-62
2021/03/13 13:11:23;;;;;;;0.40;0.20;;;7.60;99.90;;;;;;5013489;28;20413;-62
2021/03/13 13:13:50;;;;;;;4.97;1.92;;;7.60;99.90;;;;;;5013609;28;20038;-63